createdAt,value
2023-04-11T00:01:02.578Z,100695.56
2023-04-11T00:03:29.166Z,100707.25
2023-04-11T00:05:55.980Z,100692.22
2023-04-11T00:08:22.373Z,100699.22
2023-04-11T00:10:48.779Z,100691.09
2023-04-11T00:13:15.188Z,100691.41
2023-04-11T00:15:41.589Z,100682.78
2023-04-11T00:18:08.033Z,100673.41
2023-04-11T00:20:34.533Z,100675.50
2023-04-11T00:23:01.145Z,100667.88
2023-04-11T00:25:29.644Z,100664.78
2023-04-11T00:27:56.041Z,100657.03
2023-04-11T00:30:22.591Z,100656.66
2023-04-11T00:32:50.081Z,100644.38
2023-04-11T00:35:16.731Z,100642.06
2023-04-11T00:37:44.447Z,100646.56
2023-04-11T00:40:14.176Z,100642.13
2023-04-11T00:42:40.903Z,100635.63
2023-04-11T00:45:07.862Z,100630.09
2023-04-11T00:47:34.896Z,100635.94
2023-04-11T00:50:01.803Z,100632.59
2023-04-11T00:52:28.327Z,100629.47
2023-04-11T00:54:54.888Z,100624.41
2023-04-11T00:57:22.720Z,100615.66
2023-04-11T00:59:51.063Z,100616.81
2023-04-11T01:02:18.711Z,100605.22
2023-04-11T01:04:45.453Z,100594.94
2023-04-11T01:07:12.525Z,100589.31
2023-04-11T01:09:39.609Z,100580.34
2023-04-11T01:12:06.583Z,100585.59
2023-04-11T01:14:33.043Z,100588.72
2023-04-11T01:17:21.723Z,100585.91
2023-04-11T01:19:48.288Z,100572.38
2023-04-11T01:22:18.029Z,100569.13
2023-04-11T01:24:44.648Z,100564.19
2023-04-11T01:27:11.122Z,100567.47
2023-04-11T01:29:37.739Z,100557.75
2023-04-11T01:32:06.753Z,100546.84
2023-04-11T01:34:35.165Z,100548.50
2023-04-11T01:37:02.318Z,100534.19
2023-04-11T01:39:29.072Z,100534.41
2023-04-11T01:41:57.665Z,100534.78
2023-04-11T01:44:26.375Z,100538.66
2023-04-11T01:46:52.882Z,100530.03
2023-04-11T01:49:19.320Z,100520.00
2023-04-11T01:51:47.312Z,100522.72
2023-04-11T01:54:13.873Z,100518.81
2023-04-11T01:56:40.308Z,100518.88
2023-04-11T01:59:06.729Z,100507.34
2023-04-11T02:01:34.153Z,100506.06
2023-04-11T02:04:00.787Z,100494.41
2023-04-11T02:06:27.735Z,100487.63
2023-04-11T02:08:54.948Z,100483.47
2023-04-11T02:11:21.615Z,100479.28
2023-04-11T02:13:49.153Z,100480.91
2023-04-11T02:16:15.732Z,100462.78
2023-04-11T02:18:43.357Z,100462.78
2023-04-11T02:21:09.802Z,100452.19
2023-04-11T02:23:36.565Z,100456.63
2023-04-11T02:26:03.648Z,100447.94
2023-04-11T02:28:30.099Z,100449.78
2023-04-11T02:30:56.623Z,100454.66
2023-04-11T02:33:23.254Z,100451.78
2023-04-11T02:35:49.684Z,100439.94
2023-04-11T02:38:16.127Z,100438.59
2023-04-11T02:40:42.521Z,100435.56
2023-04-11T02:43:08.943Z,100435.28
2023-04-11T02:45:35.596Z,100432.38
2023-04-11T02:48:02.400Z,100433.59
2023-04-11T02:50:30.704Z,100427.91
2023-04-11T02:52:57.123Z,100419.19
2023-04-11T02:55:27.039Z,100424.28
2023-04-11T02:57:53.477Z,100422.00
2023-04-11T03:00:21.368Z,100423.38
2023-04-11T03:02:53.250Z,100428.13
2023-04-11T03:05:22.289Z,100428.50
2023-04-11T03:07:51.683Z,100417.09
2023-04-11T03:10:18.372Z,100412.75
2023-04-11T03:12:45.002Z,100402.53
2023-04-11T03:15:15.348Z,100402.38
2023-04-11T03:17:42.166Z,100404.88
2023-04-11T03:20:13.584Z,100403.56
2023-04-11T03:22:44.330Z,100406.63
2023-04-11T03:25:11.263Z,100396.44
2023-04-11T03:27:38.020Z,100403.34
2023-04-11T03:30:06.625Z,100390.16
2023-04-11T03:32:40.882Z,100393.50
2023-04-11T03:35:07.716Z,100393.97
2023-04-11T03:37:35.204Z,100401.44
2023-04-11T03:40:01.840Z,100393.28
2023-04-11T03:42:28.571Z,100400.09
2023-04-11T03:44:59.005Z,100396.44
2023-04-11T03:47:25.675Z,100387.00
2023-04-11T03:49:52.297Z,100386.00
2023-04-11T03:52:19.101Z,100388.09
2023-04-11T03:54:47.960Z,100385.41
2023-04-11T03:57:15.534Z,100386.06
2023-04-11T03:59:42.020Z,100387.44
2023-04-11T04:02:11.982Z,100389.66
2023-04-11T04:04:47.153Z,100386.69
2023-04-11T04:07:28.025Z,100389.50
2023-04-11T04:10:04.498Z,100398.28
2023-04-11T04:12:31.364Z,100393.31
2023-04-11T04:15:11.316Z,100397.84
2023-04-11T04:17:37.815Z,100384.09
2023-04-11T04:20:10.854Z,100384.19
2023-04-11T04:22:38.531Z,100374.78
2023-04-11T04:25:05.543Z,100366.66
2023-04-11T04:27:34.278Z,100369.53
2023-04-11T04:30:03.429Z,100376.84
2023-04-11T04:32:45.167Z,100374.91
2023-04-11T04:35:16.801Z,100363.53
2023-04-11T04:37:46.479Z,100361.03
2023-04-11T04:40:38.060Z,100356.47
2023-04-11T04:43:09.085Z,100364.03
2023-04-11T04:45:41.446Z,100357.31
2023-04-11T04:48:08.235Z,100355.41
2023-04-11T04:50:34.738Z,100356.19
2023-04-11T04:53:01.161Z,100359.03
2023-04-11T04:55:28.796Z,100350.66
2023-04-11T04:57:55.606Z,100354.88
2023-04-11T05:00:23.241Z,100355.72
2023-04-11T05:02:54.684Z,100349.59
2023-04-11T05:05:22.069Z,100348.84
2023-04-11T05:07:48.530Z,100356.97
2023-04-11T05:10:15.466Z,100357.81
2023-04-11T05:12:43.747Z,100341.03
2023-04-11T05:15:12.040Z,100336.28
2023-04-11T05:17:40.118Z,100334.66
2023-04-11T05:20:08.937Z,100343.63
2023-04-11T05:22:37.886Z,100347.53
2023-04-11T05:25:05.402Z,100347.53
2023-04-11T05:27:32.265Z,100342.56
2023-04-11T05:29:59.533Z,100368.38
2023-04-11T05:32:26.067Z,100375.69
2023-04-11T05:34:57.292Z,100370.94
2023-04-11T05:37:43.199Z,100374.09
2023-04-11T05:40:10.105Z,100371.72
2023-04-11T05:42:36.515Z,100362.78
2023-04-11T05:45:02.951Z,100372.59
2023-04-11T05:47:29.456Z,100369.53
2023-04-11T05:49:55.902Z,100376.75
2023-04-11T05:52:22.327Z,100375.72
2023-04-11T05:54:48.733Z,100373.97
2023-04-11T05:57:15.136Z,100374.53
2023-04-11T05:59:41.550Z,100372.88
2023-04-11T06:02:10.850Z,100363.91
2023-04-11T06:04:37.531Z,100359.44
2023-04-11T06:07:04.461Z,100359.38
2023-04-11T06:09:33.378Z,100366.34
2023-04-11T06:12:01.491Z,100356.59
2023-04-11T06:14:27.902Z,100361.59
2023-04-11T06:16:54.347Z,100357.44
2023-04-11T06:19:20.938Z,100367.78
2023-04-11T06:21:47.367Z,100362.16
2023-04-11T06:24:15.401Z,100362.50
2023-04-11T06:26:41.838Z,100361.94
2023-04-11T06:29:08.264Z,100360.50
2023-04-11T06:31:34.840Z,100359.03
2023-04-11T06:34:01.776Z,100362.91
2023-04-11T06:36:28.711Z,100359.81
2023-04-11T06:38:55.169Z,100363.28
2023-04-11T06:41:21.851Z,100361.28
2023-04-11T06:43:48.278Z,100362.66
2023-04-11T06:46:14.752Z,100351.53
2023-04-11T06:48:41.420Z,100351.75
2023-04-11T06:51:09.107Z,100353.50
2023-04-11T06:53:36.410Z,100358.97
2023-04-11T06:56:02.833Z,100367.75
2023-04-11T06:58:29.267Z,100373.22
2023-04-11T07:00:55.706Z,100370.19
2023-04-11T07:03:25.140Z,100370.69
2023-04-11T07:05:52.139Z,100369.78
2023-04-11T07:08:18.702Z,100363.59
2023-04-11T07:10:45.241Z,100376.47
2023-04-11T07:13:11.703Z,100365.28
2023-04-11T07:15:38.128Z,100376.97
2023-04-11T07:18:04.620Z,100380.38
2023-04-11T07:20:34.380Z,100378.72
2023-04-11T07:23:00.825Z,100389.31
2023-04-11T07:25:30.607Z,100388.22
2023-04-11T07:27:57.206Z,100389.66
2023-04-11T07:30:23.839Z,100377.50
2023-04-11T07:32:50.371Z,100373.22
2023-04-11T07:35:16.934Z,100375.97
2023-04-11T07:37:43.537Z,100374.88
2023-04-11T07:40:13.077Z,100377.38
2023-04-11T07:42:40.396Z,100385.66
2023-04-11T07:45:07.950Z,100389.31
2023-04-11T07:47:34.397Z,100389.00
2023-04-11T07:50:00.838Z,100395.88
2023-04-11T07:52:27.282Z,100380.03
2023-04-11T07:54:53.716Z,100385.66
2023-04-11T07:57:20.238Z,100390.16
2023-04-11T07:59:46.906Z,100403.66
2023-04-11T08:02:13.542Z,100420.59
2023-04-11T08:04:40.463Z,100414.47
2023-04-11T08:07:07.048Z,100418.44
2023-04-11T08:09:34.370Z,100420.00
2023-04-11T08:12:01.704Z,100418.91
2023-04-11T08:14:28.180Z,100417.38
2023-04-11T08:16:54.687Z,100418.75
2023-04-11T08:19:21.297Z,100416.69
2023-04-11T08:21:47.754Z,100422.97
2023-04-11T08:24:14.205Z,100418.47
2023-04-11T08:26:40.755Z,100424.34
2023-04-11T08:29:11.410Z,100420.81
2023-04-11T08:31:45.388Z,100420.66
2023-04-11T08:34:12.691Z,100423.97
2023-04-11T08:36:39.280Z,100421.25
2023-04-11T08:39:05.716Z,100416.69
2023-04-11T08:41:32.247Z,100428.38
2023-04-11T08:43:59.020Z,100430.66
2023-04-11T08:46:25.667Z,100434.63
2023-04-11T08:48:52.154Z,100439.06
2023-04-11T08:51:27.623Z,100432.84
2023-04-11T08:53:57.902Z,100434.56
2023-04-11T08:56:24.667Z,100428.09
2023-04-11T08:58:51.174Z,100423.88
2023-04-11T09:01:28.927Z,100437.38
2023-04-11T09:03:56.123Z,100431.91
2023-04-11T09:06:22.900Z,100427.22
2023-04-11T09:08:49.525Z,100425.94
2023-04-11T09:11:17.107Z,100433.56
2023-04-11T09:13:43.662Z,100428.03
2023-04-11T09:16:12.433Z,100419.28
2023-04-11T09:18:43.813Z,100426.59
2023-04-11T09:21:12.936Z,100423.75
2023-04-11T09:23:39.555Z,100414.97
2023-04-11T09:26:09.870Z,100406.69
2023-04-11T09:28:44.485Z,100414.09
2023-04-11T09:31:13.048Z,100407.78
2023-04-11T09:33:51.536Z,100409.25
2023-04-11T09:36:20.612Z,100411.91
2023-04-11T09:38:47.214Z,100418.44
2023-04-11T09:41:13.840Z,100414.97
2023-04-11T09:43:51.035Z,100423.22
2023-04-11T09:46:20.694Z,100414.03
2023-04-11T09:48:51.456Z,100412.94
2023-04-11T09:51:34.347Z,100422.72
2023-04-11T09:54:03.559Z,100418.88
2023-04-11T09:56:31.188Z,100417.59
2023-04-11T09:58:59.957Z,100418.44
2023-04-11T10:01:27.207Z,100408.19
2023-04-11T10:03:55.776Z,100411.31
2023-04-11T10:06:41.327Z,100406.63
2023-04-11T10:09:11.065Z,100415.09
2023-04-11T10:11:42.299Z,100413.53
2023-04-11T10:14:08.791Z,100396.78
2023-04-11T10:16:35.333Z,100405.38
2023-04-11T10:19:01.928Z,100402.38
2023-04-11T10:21:32.733Z,100409.56
2023-04-11T10:24:17.355Z,100399.72
2023-04-11T10:26:48.206Z,100401.16
2023-04-11T10:29:30.347Z,100393.84
2023-04-11T10:32:15.519Z,100402.50
2023-04-11T10:34:54.274Z,100406.69
2023-04-11T10:37:29.713Z,100419.50
2023-04-11T10:40:04.663Z,100405.72
2023-04-11T10:42:34.646Z,100412.56
2023-04-11T10:45:13.673Z,100417.81
2023-04-11T10:47:40.495Z,100419.81
2023-04-11T10:50:25.076Z,100425.84
2023-04-11T10:52:55.361Z,100412.16
2023-04-11T10:55:22.964Z,100414.25
2023-04-11T10:58:13.996Z,100406.00
2023-04-11T11:00:46.321Z,100403.56
2023-04-11T11:03:16.607Z,100401.53
2023-04-11T11:05:43.136Z,100414.06
2023-04-11T11:08:09.772Z,100408.28
2023-04-11T11:10:40.964Z,100413.00
2023-04-11T11:13:08.172Z,100412.78
2023-04-11T11:15:37.742Z,100422.34
2023-04-11T11:18:07.014Z,100426.38
2023-04-11T11:20:34.453Z,100419.59
2023-04-11T11:23:06.265Z,100424.44
2023-04-11T11:25:33.269Z,100428.53
2023-04-11T11:28:00.341Z,100429.81
2023-04-11T11:30:27.158Z,100427.06
2023-04-11T11:32:54.155Z,100427.53
2023-04-11T11:35:21.419Z,100428.16
2023-04-11T11:37:47.864Z,100433.59
2023-04-11T11:40:14.310Z,100430.00
2023-04-11T11:42:41.137Z,100436.94
2023-04-11T11:45:18.139Z,100431.25
2023-04-11T11:47:46.001Z,100433.84
2023-04-11T11:50:24.663Z,100445.41
2023-04-11T11:52:51.256Z,100448.31
2023-04-11T11:55:17.587Z,100439.56
2023-04-11T11:57:45.988Z,100455.41
2023-04-11T12:00:13.843Z,100448.31
2023-04-11T12:02:42.339Z,100446.34
2023-04-11T12:05:12.117Z,100452.16
2023-04-11T12:07:39.155Z,100457.88
2023-04-11T12:10:08.708Z,100448.72
2023-04-11T12:12:36.725Z,100455.72
2023-04-11T12:15:14.345Z,100467.88
2023-04-11T12:17:40.986Z,100467.56
2023-04-11T12:20:08.258Z,100473.38
2023-04-11T12:22:35.361Z,100473.19
2023-04-11T12:25:06.360Z,100479.94
2023-04-11T12:27:36.599Z,100474.63
2023-04-11T12:30:04.070Z,100469.34
2023-04-11T12:32:30.843Z,100470.25
2023-04-11T12:34:57.319Z,100474.31
2023-04-11T12:37:23.802Z,100468.09
2023-04-11T12:39:50.312Z,100460.19
2023-04-11T12:42:18.660Z,100472.28
2023-04-11T12:44:47.704Z,100473.63
2023-04-11T12:47:14.182Z,100497.25
2023-04-11T12:49:40.788Z,100521.13
2023-04-11T12:52:07.471Z,100527.72
2023-04-11T12:54:33.983Z,100530.56
2023-04-11T12:57:00.396Z,100538.75
2023-04-11T12:59:26.798Z,100557.59
2023-04-11T13:01:53.326Z,100565.25
2023-04-11T13:04:19.901Z,100573.59
2023-04-11T13:06:47.491Z,100577.72
2023-04-11T13:09:14.545Z,100572.94
2023-04-11T13:11:41.863Z,100588.16
2023-04-11T13:14:08.245Z,100589.16
2023-04-11T13:16:34.676Z,100588.63
2023-04-11T13:19:01.103Z,100598.88
2023-04-11T13:21:28.013Z,100593.25
2023-04-11T13:23:56.069Z,100589.34
2023-04-11T13:26:22.457Z,100590.63
2023-04-11T13:28:48.869Z,100589.75
2023-04-11T13:31:15.383Z,100585.81
2023-04-11T13:33:42.262Z,100596.47
2023-04-11T13:36:09.286Z,100607.59
2023-04-11T13:38:35.681Z,100632.50
2023-04-11T13:41:02.169Z,100650.09
2023-04-11T13:43:28.602Z,100663.31
2023-04-11T13:45:55.027Z,100678.50
2023-04-11T13:48:21.489Z,100681.00
2023-04-11T13:50:47.898Z,100684.88
2023-04-11T13:53:14.310Z,100698.84
2023-04-11T13:55:41.342Z,100703.25
2023-04-11T13:58:07.737Z,100701.31
2023-04-11T14:00:36.047Z,100697.75
2023-04-11T14:03:02.627Z,100665.06
2023-04-11T14:05:32.371Z,100674.78
2023-04-11T14:07:58.788Z,100677.31
2023-04-11T14:10:25.311Z,100670.03
2023-04-11T14:12:51.759Z,100662.00
2023-04-11T14:15:19.971Z,100663.38
2023-04-11T14:17:47.932Z,100657.81
2023-04-11T14:20:15.109Z,100646.97
2023-04-11T14:22:42.460Z,100654.47
2023-04-11T14:25:11.069Z,100651.69
2023-04-11T14:27:40.051Z,100652.25
2023-04-11T14:30:08.774Z,100650.84
2023-04-11T14:32:35.417Z,100653.06
2023-04-11T14:35:04.031Z,100646.94
2023-04-11T14:37:31.923Z,100648.34
2023-04-11T14:39:58.334Z,100648.63
2023-04-11T14:42:24.707Z,100646.38
2023-04-11T14:44:52.749Z,100648.63
2023-04-11T14:47:19.643Z,100647.22
2023-04-11T14:49:46.242Z,100644.44
2023-04-11T14:52:12.833Z,100644.41
2023-04-11T14:54:39.232Z,100648.63
2023-04-11T14:57:05.619Z,100652.22
2023-04-11T14:59:32.030Z,100650.28
2023-04-11T15:02:01.993Z,100646.91
2023-04-11T15:04:28.507Z,100653.56
2023-04-11T15:06:55.028Z,100647.66
2023-04-11T15:09:21.954Z,100647.41
2023-04-11T15:11:48.783Z,100648.78
2023-04-11T15:14:15.263Z,100654.94
2023-04-11T15:16:41.835Z,100655.78
2023-04-11T15:19:09.540Z,100663.34
2023-04-11T15:21:35.945Z,100656.63
2023-04-11T15:24:07.164Z,100654.38
2023-04-11T15:26:34.202Z,100663.34
2023-04-11T15:29:00.748Z,100655.22
2023-04-11T15:31:27.345Z,100651.03
2023-04-11T15:33:56.511Z,100652.94
2023-04-11T15:36:23.230Z,100660.81
2023-04-11T15:38:49.684Z,100666.09
2023-04-11T15:41:16.122Z,100654.06
2023-04-11T15:43:42.777Z,100662.69
2023-04-11T15:46:09.233Z,100658.97
2023-04-11T15:48:35.667Z,100664.25
2023-04-11T15:51:11.472Z,100664.19
2023-04-11T15:53:37.873Z,100665.94
2023-04-11T15:56:06.082Z,100668.69
2023-04-11T15:58:33.950Z,100673.09
2023-04-11T16:01:01.628Z,100679.72
2023-04-11T16:03:32.680Z,100680.06
2023-04-11T16:06:00.135Z,100698.22
2023-04-11T16:08:27.418Z,100711.44
2023-04-11T16:10:54.358Z,100709.91
2023-04-11T16:13:20.785Z,100697.06
2023-04-11T16:15:47.219Z,100694.50
2023-04-11T16:18:19.627Z,100679.09
2023-04-11T16:20:50.031Z,100687.50
2023-04-11T16:23:16.476Z,100687.25
2023-04-11T16:25:44.278Z,100686.66
2023-04-11T16:28:11.398Z,100687.47
2023-04-11T16:30:37.781Z,100700.06
2023-04-11T16:33:04.271Z,100694.22
2023-04-11T16:35:30.916Z,100673.19
2023-04-11T16:37:57.624Z,100681.56
2023-04-11T16:40:24.011Z,100684.94
2023-04-11T16:42:50.399Z,100703.38
2023-04-11T16:45:16.782Z,100708.91
2023-04-11T16:47:43.258Z,100701.13
2023-04-11T16:50:09.799Z,100714.84
2023-04-11T16:52:36.196Z,100698.63
2023-04-11T16:55:25.843Z,100711.22
2023-04-11T16:57:52.236Z,100711.84
2023-04-11T17:00:20.354Z,100711.25
2023-04-11T17:02:47.068Z,100720.75
2023-04-11T17:05:13.590Z,100707.34
2023-04-11T17:07:40.003Z,100711.59
2023-04-11T17:10:07.605Z,100718.94
2023-04-11T17:12:34.002Z,100711.88
2023-04-11T17:15:00.647Z,100709.41
2023-04-11T17:17:27.251Z,100711.06
2023-04-11T17:19:53.640Z,100716.38
2023-04-11T17:22:20.073Z,100712.47
2023-04-11T17:24:46.807Z,100720.06
2023-04-11T17:27:13.204Z,100712.22
2023-04-11T17:29:39.687Z,100723.69
2023-04-11T17:32:06.101Z,100725.09
2023-04-11T17:34:32.519Z,100730.69
2023-04-11T17:36:58.929Z,100742.47
2023-04-11T17:39:28.368Z,100744.41
2023-04-11T17:41:55.333Z,100749.16
2023-04-11T17:44:21.744Z,100750.00
2023-04-11T17:46:48.209Z,100750.81
2023-04-11T17:49:14.997Z,100755.31
2023-04-11T17:51:48.755Z,100755.88
2023-04-11T17:54:19.042Z,100763.38
2023-04-11T17:56:45.931Z,100763.09
2023-04-11T17:59:13.552Z,100778.19
2023-04-11T18:01:42.148Z,100777.59
2023-04-11T18:04:09.584Z,100777.31
2023-04-11T18:06:36.198Z,100774.81
2023-04-11T18:09:03.293Z,100782.09
2023-04-11T18:11:29.713Z,100777.88
2023-04-11T18:13:56.344Z,100785.97
2023-04-11T18:16:22.910Z,100791.00
2023-04-11T18:18:49.336Z,100789.56
2023-04-11T18:21:16.441Z,100783.41
2023-04-11T18:23:42.846Z,100785.66
2023-04-11T18:26:09.326Z,100788.47
2023-04-11T18:28:36.345Z,100790.63
2023-04-11T18:31:05.572Z,100794.03
2023-04-11T18:33:32.710Z,100793.19
2023-04-11T18:35:59.336Z,100799.88
2023-04-11T18:38:25.745Z,100805.72
2023-04-11T18:40:55.703Z,100811.56
2023-04-11T18:43:23.773Z,100817.63
2023-04-11T18:45:50.623Z,100819.59
2023-04-11T18:48:17.039Z,100815.66
2023-04-11T18:50:46.926Z,100815.69
2023-04-11T18:53:14.065Z,100817.88
2023-04-11T18:55:41.189Z,100822.31
2023-04-11T18:58:09.199Z,100834.25
2023-04-11T19:00:36.272Z,100835.03
2023-04-11T19:03:06.008Z,100828.63
2023-04-11T19:05:33.423Z,100831.34
2023-04-11T19:08:00.591Z,100833.88
2023-04-11T19:10:26.987Z,100836.03
2023-04-11T19:12:53.419Z,100837.16
2023-04-11T19:15:19.810Z,100832.09
2023-04-11T19:17:46.491Z,100829.28
2023-04-11T19:20:13.479Z,100832.66
2023-04-11T19:22:42.979Z,100830.72
2023-04-11T19:25:10.929Z,100831.50
2023-04-11T19:27:41.578Z,100830.34
2023-04-11T19:30:08.757Z,100828.00
2023-04-11T19:32:38.426Z,100831.59
2023-04-11T19:35:08.530Z,100834.75
2023-04-11T19:37:35.180Z,100829.66
2023-04-11T19:40:02.587Z,100825.22
2023-04-11T19:42:32.909Z,100834.41
2023-04-11T19:44:59.497Z,100829.13
2023-04-11T19:47:25.968Z,100825.81
2023-04-11T19:49:52.859Z,100833.56
2023-04-11T19:52:19.410Z,100828.31
2023-04-11T19:54:46.119Z,100827.47
2023-04-11T19:57:12.512Z,100828.53
2023-04-11T19:59:38.910Z,100831.88
2023-04-11T20:02:06.011Z,100833.47
2023-04-11T20:04:32.413Z,100834.84
2023-04-11T20:07:00.770Z,100837.13
2023-04-11T20:09:28.769Z,100837.38
2023-04-11T20:11:56.638Z,100832.31
2023-04-11T20:14:23.055Z,100836.94
2023-04-11T20:16:49.486Z,100837.78
2023-04-11T20:19:15.945Z,100837.72
2023-04-11T20:21:42.377Z,100838.31
2023-04-11T20:24:12.232Z,100844.34
2023-04-11T20:26:38.655Z,100843.16
2023-04-11T20:29:05.068Z,100840.06
2023-04-11T20:31:31.540Z,100839.00
2023-04-11T20:33:58.125Z,100844.28
2023-04-11T20:36:25.142Z,100837.69
2023-04-11T20:38:51.708Z,100844.03
2023-04-11T20:41:19.205Z,100844.34
2023-04-11T20:43:45.620Z,100844.34
2023-04-11T20:46:13.279Z,100844.88
2023-04-11T20:48:42.550Z,100837.31
2023-04-11T20:51:09.716Z,100844.81
2023-04-11T20:53:36.183Z,100846.47
2023-04-11T20:56:03.030Z,100841.97
2023-04-11T20:58:29.438Z,100850.50
2023-04-11T21:00:57.277Z,100851.81
2023-04-11T21:03:24.033Z,100849.03
2023-04-11T21:05:50.516Z,100842.00
2023-04-11T21:08:17.122Z,100835.53
2023-04-11T21:10:43.519Z,100844.66
2023-04-11T21:13:09.916Z,100844.91
2023-04-11T21:15:36.357Z,100844.06
2023-04-11T21:18:04.866Z,100846.25
2023-04-11T21:20:32.593Z,100850.47
2023-04-11T21:23:00.589Z,100849.38
2023-04-11T21:25:27.008Z,100845.94
2023-04-11T21:27:53.421Z,100848.81
2023-04-11T21:30:19.880Z,100845.63
2023-04-11T21:32:46.547Z,100848.78
2023-04-11T21:35:13.052Z,100847.34
2023-04-11T21:37:39.457Z,100848.56
2023-04-11T21:40:06.551Z,100856.34
2023-04-11T21:42:33.009Z,100858.44
2023-04-11T21:44:59.451Z,100860.88
2023-04-11T21:47:25.938Z,100865.53
2023-04-11T21:49:52.351Z,100860.06
2023-04-11T21:52:18.735Z,100863.91
2023-04-11T21:54:45.222Z,100865.53
2023-04-11T21:57:11.647Z,100864.09
2023-04-11T21:59:39.106Z,100862.16
2023-04-11T22:02:05.908Z,100864.00
2023-04-11T22:07:01.250Z,100865.88
2023-04-11T22:09:27.632Z,100862.31
2023-04-11T22:11:54.024Z,100867.03
2023-04-11T22:14:20.414Z,100869.91
2023-04-11T22:16:49.264Z,100874.03
2023-04-11T22:19:19.130Z,100874.72
2023-04-11T22:21:50.657Z,100878.88
2023-04-11T22:24:17.161Z,100875.63
2023-04-11T22:26:49.116Z,100865.94
2023-04-11T22:29:18.835Z,100873.44
2023-04-11T22:31:46.974Z,100873.19
2023-04-11T22:34:13.463Z,100866.81
2023-04-11T22:36:39.906Z,100871.25
2023-04-11T22:39:07.025Z,100876.47
2023-04-11T22:41:35.342Z,100867.56
2023-04-11T22:44:02.513Z,100866.63
2023-04-11T22:46:33.905Z,100864.22
2023-04-11T22:49:00.379Z,100871.28
2023-04-11T22:51:30.007Z,100872.25
2023-04-11T22:53:57.373Z,100879.16
2023-04-11T22:56:23.976Z,100875.97
2023-04-11T22:58:50.368Z,100874.91
2023-04-11T23:01:17.588Z,100870.34
2023-04-11T23:03:44.124Z,100871.41
2023-04-11T23:06:10.984Z,100856.72
2023-04-11T23:08:37.438Z,100856.88
2023-04-11T23:11:04.093Z,100862.06
2023-04-11T23:13:30.481Z,100856.41
2023-04-11T23:15:56.949Z,100858.34
2023-04-11T23:18:23.344Z,100855.56
2023-04-11T23:20:50.442Z,100853.72
2023-04-11T23:23:16.877Z,100854.34
2023-04-11T23:25:43.277Z,100848.34
2023-04-11T23:28:09.664Z,100843.53
2023-04-11T23:30:36.136Z,100834.56
2023-04-11T23:33:05.880Z,100832.91
2023-04-11T23:35:33.994Z,100831.78
2023-04-11T23:38:01.840Z,100828.84
2023-04-11T23:40:32.297Z,100828.41
2023-04-11T23:42:58.982Z,100830.00
2023-04-11T23:45:25.707Z,100826.13
2023-04-11T23:47:52.519Z,100828.41
2023-04-11T23:50:19.526Z,100826.97
2023-04-11T23:52:46.852Z,100816.63
2023-04-11T23:55:13.717Z,100819.91
2023-04-11T23:57:40.573Z,100813.50
